createdAt,value
2023-01-25T00:00:08.226Z,88.74
2023-01-25T00:02:35.839Z,87.96
2023-01-25T00:05:03.251Z,88.27
2023-01-25T00:07:30.654Z,87.79
2023-01-25T00:09:58.104Z,88.07
2023-01-25T00:12:25.623Z,88.04
2023-01-25T00:14:53.013Z,89.04
2023-01-25T00:17:21.786Z,90.76
2023-01-25T00:19:49.162Z,91.25
2023-01-25T00:22:16.587Z,90.25
2023-01-25T00:24:44.073Z,91.08
2023-01-25T00:27:11.585Z,90.15
2023-01-25T00:29:39.123Z,90.39
2023-01-25T00:32:37.860Z,90.32
2023-01-25T00:35:06.692Z,90.37
2023-01-25T00:37:37.592Z,90.33
2023-01-25T00:40:06.930Z,90.47
2023-01-25T00:42:34.468Z,89.91
2023-01-25T00:45:03.071Z,89.30
2023-01-25T00:47:30.498Z,89.56
2023-01-25T00:49:59.358Z,89.03
2023-01-25T00:52:28.512Z,88.68
2023-01-25T00:54:56.950Z,88.49
2023-01-25T00:57:24.404Z,89.53
2023-01-25T00:59:51.770Z,90.00
2023-01-25T01:02:19.178Z,90.57
2023-01-25T01:04:46.680Z,90.21
2023-01-25T01:07:16.276Z,89.89
2023-01-25T01:09:43.798Z,89.80
2023-01-25T01:12:11.253Z,90.39
2023-01-25T01:14:38.700Z,89.74
2023-01-25T01:17:06.116Z,89.11
2023-01-25T01:19:33.693Z,88.66
2023-01-25T01:22:01.076Z,88.69
2023-01-25T01:24:30.115Z,88.94
2023-01-25T01:26:57.642Z,87.96
2023-01-25T01:29:25.336Z,88.09
2023-01-25T01:31:53.567Z,88.22
2023-01-25T01:34:21.128Z,88.44
2023-01-25T01:36:48.497Z,88.05
2023-01-25T01:39:16.066Z,88.64
2023-01-25T01:41:44.819Z,88.05
2023-01-25T01:44:17.796Z,87.72
2023-01-25T01:46:52.371Z,88.00
2023-01-25T01:49:23.370Z,87.56
2023-01-25T01:51:52.108Z,87.61
2023-01-25T01:54:24.045Z,88.92
2023-01-25T01:56:57.073Z,88.82
2023-01-25T01:59:27.324Z,88.64
2023-01-25T02:01:55.250Z,87.93
2023-01-25T02:04:23.616Z,88.08
2023-01-25T02:06:54.017Z,88.46
2023-01-25T02:09:24.621Z,88.00
2023-01-25T02:11:53.816Z,87.31
2023-01-25T02:14:21.561Z,87.51
2023-01-25T02:16:49.018Z,86.50
2023-01-25T02:19:23.195Z,87.40
2023-01-25T02:21:52.647Z,87.42
2023-01-25T02:24:22.517Z,87.05
2023-01-25T02:26:51.285Z,87.42
2023-01-25T02:29:19.547Z,87.01
2023-01-25T02:31:49.393Z,88.03
2023-01-25T02:34:16.970Z,88.36
2023-01-25T02:36:44.363Z,88.46
2023-01-25T02:39:16.662Z,88.92
2023-01-25T02:41:46.682Z,89.64
2023-01-25T02:44:17.073Z,88.98
2023-01-25T02:46:45.524Z,89.25
2023-01-25T02:49:13.169Z,88.75
2023-01-25T02:51:42.003Z,88.29
2023-01-25T02:54:11.143Z,87.88
2023-01-25T02:56:40.601Z,87.74
2023-01-25T02:59:08.295Z,87.74
2023-01-25T03:01:38.469Z,87.37
2023-01-25T03:04:06.533Z,87.75
2023-01-25T03:06:34.600Z,87.40
2023-01-25T03:09:02.434Z,87.27
2023-01-25T03:11:29.895Z,87.33
2023-01-25T03:13:57.319Z,87.21
2023-01-25T03:16:24.887Z,87.15
2023-01-25T03:18:55.457Z,87.47
2023-01-25T03:21:23.853Z,89.05
2023-01-25T03:23:56.488Z,88.24
2023-01-25T03:26:24.874Z,87.97
2023-01-25T03:28:52.418Z,88.05
2023-01-25T03:31:20.601Z,88.49
2023-01-25T03:33:48.583Z,89.08
2023-01-25T03:36:17.382Z,88.29
2023-01-25T03:38:44.766Z,88.44
2023-01-25T03:41:14.058Z,90.14
2023-01-25T03:43:41.539Z,90.41
2023-01-25T03:46:09.205Z,90.57
2023-01-25T03:48:36.584Z,90.19
2023-01-25T03:51:03.982Z,91.30
2023-01-25T03:53:32.943Z,91.20
2023-01-25T03:56:02.063Z,90.06
2023-01-25T03:58:30.392Z,89.92
2023-01-25T04:00:59.332Z,90.30
2023-01-25T04:03:28.143Z,89.74
2023-01-25T04:05:57.884Z,89.83
2023-01-25T04:08:26.065Z,91.14
2023-01-25T04:10:56.656Z,90.39
2023-01-25T04:13:25.762Z,90.17
2023-01-25T04:15:53.232Z,89.98
2023-01-25T04:18:20.709Z,90.24
2023-01-25T04:20:53.539Z,89.70
2023-01-25T04:23:20.974Z,90.37
2023-01-25T04:25:55.139Z,89.75
2023-01-25T04:28:22.735Z,89.98
2023-01-25T04:30:50.308Z,90.66
2023-01-25T04:33:18.264Z,90.45
2023-01-25T04:35:45.885Z,91.40
2023-01-25T04:38:13.746Z,91.68
2023-01-25T04:40:41.249Z,92.41
2023-01-25T04:43:10.373Z,91.41
2023-01-25T04:45:37.768Z,91.25
2023-01-25T04:48:09.659Z,90.41
2023-01-25T04:50:37.114Z,90.21
2023-01-25T04:53:07.545Z,90.94
2023-01-25T04:55:34.995Z,91.06
2023-01-25T04:58:02.957Z,90.27
2023-01-25T05:00:32.616Z,89.24
2023-01-25T05:03:00.147Z,89.65
2023-01-25T05:05:27.647Z,89.57
2023-01-25T05:07:55.059Z,89.40
2023-01-25T05:10:22.650Z,88.86
2023-01-25T05:12:50.126Z,88.23
2023-01-25T05:15:17.490Z,88.55
2023-01-25T05:17:46.247Z,88.83
2023-01-25T05:20:13.959Z,88.12
2023-01-25T05:22:41.390Z,87.97
2023-01-25T05:25:29.567Z,88.86
2023-01-25T05:27:56.035Z,88.74
2023-01-25T05:30:23.485Z,88.13
2023-01-25T05:32:52.300Z,88.05
2023-01-25T05:35:19.746Z,89.66
2023-01-25T05:37:47.143Z,89.05
2023-01-25T05:40:14.781Z,88.73
2023-01-25T05:42:42.222Z,88.56
2023-01-25T05:45:11.460Z,88.46
2023-01-25T05:47:39.101Z,89.60
2023-01-25T05:50:09.654Z,89.69
2023-01-25T05:52:37.183Z,89.14
2023-01-25T05:55:05.075Z,89.31
2023-01-25T05:57:32.457Z,88.11
2023-01-25T05:59:59.837Z,88.07
2023-01-25T06:02:27.352Z,88.36
2023-01-25T06:04:54.853Z,87.90
2023-01-25T06:07:24.834Z,88.14
2023-01-25T06:09:52.277Z,88.32
2023-01-25T06:12:21.787Z,88.14
2023-01-25T06:14:49.254Z,88.44
2023-01-25T06:17:16.614Z,88.33
2023-01-25T06:19:44.049Z,87.67
2023-01-25T06:22:11.465Z,87.77
2023-01-25T06:24:40.341Z,88.36
2023-01-25T06:27:07.679Z,88.38
2023-01-25T06:29:35.179Z,90.24
2023-01-25T06:32:02.589Z,90.85
2023-01-25T06:34:30.032Z,90.50
2023-01-25T06:36:57.420Z,90.79
2023-01-25T06:39:24.865Z,90.31
2023-01-25T06:41:54.936Z,89.72
2023-01-25T06:44:22.332Z,88.57
2023-01-25T06:46:49.753Z,88.40
2023-01-25T06:49:17.269Z,87.86
2023-01-25T06:51:44.624Z,87.97
2023-01-25T06:54:12.047Z,88.82
2023-01-25T06:56:39.422Z,89.58
2023-01-25T06:59:08.142Z,89.75
2023-01-25T07:01:35.544Z,89.49
2023-01-25T07:04:02.909Z,88.98
2023-01-25T07:06:33.069Z,88.17
2023-01-25T07:09:05.994Z,88.57
2023-01-25T07:11:33.417Z,88.64
2023-01-25T07:14:03.022Z,88.51
2023-01-25T07:16:36.475Z,89.66
2023-01-25T07:19:03.921Z,90.11
2023-01-25T07:21:31.305Z,90.32
2023-01-25T07:24:02.202Z,89.83
2023-01-25T07:26:29.823Z,90.40
2023-01-25T07:28:58.852Z,90.18
2023-01-25T07:31:26.902Z,89.48
2023-01-25T07:33:57.687Z,90.19
2023-01-25T07:36:25.635Z,89.17
2023-01-25T07:38:54.137Z,88.55
2023-01-25T07:41:21.482Z,88.94
2023-01-25T07:43:48.959Z,89.28
2023-01-25T07:46:16.548Z,89.46
2023-01-25T07:48:48.112Z,88.81
2023-01-25T07:51:23.434Z,88.55
2023-01-25T07:53:52.112Z,89.22
2023-01-25T07:56:20.058Z,89.00
2023-01-25T07:58:47.705Z,88.96
2023-01-25T08:01:16.256Z,88.65
2023-01-25T08:03:44.664Z,88.70
2023-01-25T08:06:12.405Z,88.85
2023-01-25T08:08:42.584Z,89.04
2023-01-25T08:11:12.994Z,88.85
2023-01-25T08:13:40.361Z,88.65
2023-01-25T08:16:07.823Z,89.18
2023-01-25T08:18:36.084Z,89.62
2023-01-25T08:21:04.321Z,89.10
2023-01-25T08:23:31.813Z,89.29
2023-01-25T08:26:04.157Z,90.21
2023-01-25T08:28:32.149Z,91.44
2023-01-25T08:31:06.271Z,90.39
2023-01-25T08:33:33.704Z,90.08
2023-01-25T08:36:01.009Z,90.26
2023-01-25T08:38:28.378Z,91.63
2023-01-25T08:40:55.724Z,92.13
2023-01-25T08:43:24.727Z,91.74
2023-01-25T08:45:57.486Z,91.90
2023-01-25T08:48:24.858Z,92.47
2023-01-25T08:50:55.010Z,92.05
2023-01-25T08:53:22.365Z,91.00
2023-01-25T08:55:49.761Z,90.06
2023-01-25T08:58:19.749Z,90.06
2023-01-25T09:00:49.241Z,90.32
2023-01-25T09:03:18.014Z,90.46
2023-01-25T09:05:45.552Z,89.97
2023-01-25T09:08:12.897Z,90.79
2023-01-25T09:10:40.261Z,90.77
2023-01-25T09:13:08.752Z,91.26
2023-01-25T09:15:36.231Z,91.18
2023-01-25T09:18:05.144Z,91.77
2023-01-25T09:20:34.332Z,90.94
2023-01-25T09:23:02.105Z,90.46
2023-01-25T09:25:29.441Z,90.64
2023-01-25T09:27:56.843Z,91.04
2023-01-25T09:30:33.935Z,91.85
2023-01-25T09:33:06.271Z,91.01
2023-01-25T09:35:35.610Z,91.37
2023-01-25T09:38:03.230Z,91.51
2023-01-25T09:40:34.997Z,91.84
2023-01-25T09:43:06.827Z,91.23
2023-01-25T09:45:35.455Z,91.03
2023-01-25T09:48:14.401Z,91.00
2023-01-25T09:50:58.123Z,91.26
2023-01-25T09:53:35.827Z,90.38
2023-01-25T09:56:05.969Z,91.27
2023-01-25T09:58:35.752Z,92.33
2023-01-25T10:01:14.472Z,92.20
2023-01-25T10:03:49.489Z,91.82
2023-01-25T10:06:18.041Z,92.32
2023-01-25T10:08:49.904Z,92.92
2023-01-25T10:11:22.297Z,93.71
2023-01-25T10:13:50.087Z,93.43
2023-01-25T10:16:25.943Z,92.59
2023-01-25T10:19:05.408Z,92.08
2023-01-25T10:21:36.382Z,90.96
2023-01-25T10:24:39.349Z,91.27
2023-01-25T10:27:15.053Z,91.10
2023-01-25T10:29:42.418Z,91.62
2023-01-25T10:32:15.607Z,91.97
2023-01-25T10:34:55.819Z,91.73
2023-01-25T10:37:26.510Z,91.91
2023-01-25T10:39:58.435Z,92.12
2023-01-25T10:42:27.748Z,93.10
2023-01-25T10:44:55.108Z,91.78
2023-01-25T10:47:25.226Z,92.73
2023-01-25T10:49:55.371Z,92.91
2023-01-25T10:52:24.357Z,92.69
2023-01-25T10:55:12.688Z,92.61
2023-01-25T10:57:44.085Z,92.31
2023-01-25T11:00:21.771Z,91.71
2023-01-25T11:02:49.559Z,92.50
2023-01-25T11:05:27.761Z,92.19
2023-01-25T11:07:55.854Z,92.31
2023-01-25T11:10:31.871Z,92.28
2023-01-25T11:13:21.724Z,92.22
2023-01-25T11:15:50.981Z,91.83
2023-01-25T11:18:20.329Z,91.61
2023-01-25T11:20:50.185Z,92.42
2023-01-25T11:23:24.097Z,92.42
2023-01-25T11:25:52.157Z,92.89
2023-01-25T11:28:22.842Z,93.35
2023-01-25T11:30:51.134Z,93.54
2023-01-25T11:33:20.678Z,93.82
2023-01-25T11:36:06.161Z,94.72
2023-01-25T11:38:33.721Z,94.34
2023-01-25T11:41:09.157Z,93.91
2023-01-25T11:43:54.149Z,94.53
2023-01-25T11:46:30.147Z,95.25
2023-01-25T11:49:10.453Z,95.84
2023-01-25T11:51:42.772Z,95.36
2023-01-25T11:54:38.619Z,94.80
2023-01-25T11:57:14.645Z,93.35
2023-01-25T11:59:55.833Z,92.89
2023-01-25T12:02:52.447Z,92.73
2023-01-25T12:05:28.407Z,92.89
2023-01-25T12:08:06.597Z,92.43
2023-01-25T12:10:39.565Z,92.43
2023-01-25T12:13:13.532Z,92.81
2023-01-25T12:15:48.126Z,92.42
2023-01-25T12:18:36.515Z,92.68
2023-01-25T12:21:08.401Z,92.85
2023-01-25T12:23:56.579Z,92.80
2023-01-25T12:26:27.669Z,92.93
2023-01-25T12:29:00.140Z,93.87
2023-01-25T12:31:31.529Z,94.69
2023-01-25T12:34:03.368Z,94.36
2023-01-25T12:36:33.802Z,94.67
2023-01-25T12:39:04.705Z,94.89
2023-01-25T12:41:37.115Z,95.03
2023-01-25T12:44:09.613Z,93.83
2023-01-25T12:46:42.246Z,93.34
2023-01-25T12:49:16.806Z,93.10
2023-01-25T12:51:45.437Z,93.78
2023-01-25T12:54:19.361Z,93.19
2023-01-25T12:56:50.042Z,93.00
2023-01-25T12:59:21.656Z,93.44
2023-01-25T13:01:52.686Z,93.62
2023-01-25T13:04:30.804Z,94.28
2023-01-25T13:07:03.453Z,95.30
2023-01-25T13:09:35.580Z,94.58
2023-01-25T13:12:04.606Z,94.99
2023-01-25T13:14:36.806Z,95.55
2023-01-25T13:17:25.909Z,95.29
2023-01-25T13:19:54.328Z,96.27
2023-01-25T13:22:58.512Z,95.78
2023-01-25T13:25:28.286Z,96.22
2023-01-25T13:28:39.832Z,95.91
2023-01-25T13:31:07.231Z,94.73
2023-01-25T13:33:36.104Z,94.25
2023-01-25T13:36:38.141Z,95.10
2023-01-25T13:39:39.229Z,95.58
2023-01-25T13:42:19.583Z,95.27
2023-01-25T13:44:50.725Z,94.27
2023-01-25T13:47:21.501Z,93.71
2023-01-25T13:49:53.089Z,92.69
2023-01-25T13:52:22.315Z,93.13
2023-01-25T13:54:51.541Z,92.71
2023-01-25T13:57:23.594Z,93.58
2023-01-25T14:00:09.925Z,94.03
2023-01-25T14:02:38.430Z,93.76
2023-01-25T14:05:08.211Z,93.83
2023-01-25T14:07:36.911Z,93.71
2023-01-25T14:10:10.209Z,93.38
2023-01-25T14:12:39.904Z,93.67
2023-01-25T14:15:22.036Z,94.08
2023-01-25T14:18:04.739Z,94.02
2023-01-25T14:20:32.133Z,94.32
2023-01-25T14:22:59.441Z,95.18
2023-01-25T14:25:26.890Z,95.00
2023-01-25T14:27:57.029Z,94.21
2023-01-25T14:30:25.835Z,94.53
2023-01-25T14:32:55.334Z,94.69
2023-01-25T14:35:42.789Z,94.80
2023-01-25T14:38:31.527Z,93.83
2023-01-25T14:41:06.754Z,94.30
2023-01-25T14:43:37.325Z,93.96
2023-01-25T14:46:19.441Z,94.24
2023-01-25T14:48:47.016Z,93.57
2023-01-25T14:51:18.060Z,93.77
2023-01-25T14:53:47.401Z,92.73
2023-01-25T14:56:27.131Z,92.51
2023-01-25T14:58:59.803Z,92.90
2023-01-25T15:01:32.042Z,94.40
2023-01-25T15:03:59.717Z,95.00
2023-01-25T15:06:27.030Z,94.33
2023-01-25T15:08:54.458Z,93.67
2023-01-25T15:11:38.487Z,94.22
2023-01-25T15:14:17.638Z,94.00
2023-01-25T15:16:45.343Z,93.54
2023-01-25T15:19:22.821Z,93.02
2023-01-25T15:21:50.429Z,92.57
2023-01-25T15:24:18.027Z,92.49
2023-01-25T15:26:50.870Z,92.00
2023-01-25T15:29:21.751Z,92.07
2023-01-25T15:31:50.181Z,91.99
2023-01-25T15:34:19.327Z,92.09
2023-01-25T15:36:47.095Z,92.08
2023-01-25T15:39:16.081Z,92.15
2023-01-25T15:41:43.613Z,93.06
2023-01-25T15:44:11.312Z,92.51
2023-01-25T15:46:41.289Z,92.98
2023-01-25T15:49:09.601Z,93.05
2023-01-25T15:51:36.931Z,94.04
2023-01-25T15:54:04.637Z,94.23
2023-01-25T15:56:33.685Z,95.00
2023-01-25T15:59:02.038Z,95.07
2023-01-25T16:01:30.554Z,94.77
2023-01-25T16:04:00.386Z,94.20
2023-01-25T16:06:38.057Z,93.33
2023-01-25T16:09:14.222Z,93.75
2023-01-25T16:11:41.565Z,93.63
2023-01-25T16:14:08.900Z,93.39
2023-01-25T16:16:40.404Z,93.53
2023-01-25T16:19:13.097Z,92.91
2023-01-25T16:21:40.655Z,92.92
2023-01-25T16:24:08.806Z,93.20
2023-01-25T16:26:38.282Z,93.92
2023-01-25T16:29:05.599Z,93.57
2023-01-25T16:31:33.662Z,94.45
2023-01-25T16:34:01.528Z,94.61
2023-01-25T16:36:31.324Z,95.26
2023-01-25T16:39:07.555Z,95.87
2023-01-25T16:41:34.916Z,96.27
2023-01-25T16:44:03.092Z,95.04
2023-01-25T16:46:30.507Z,95.02
2023-01-25T16:48:58.704Z,94.70
2023-01-25T16:51:27.709Z,95.17
2023-01-25T16:53:58.056Z,95.65
2023-01-25T16:56:26.737Z,95.10
2023-01-25T16:58:55.521Z,95.58
2023-01-25T17:01:24.439Z,95.41
2023-01-25T17:03:52.209Z,94.68
2023-01-25T17:06:21.617Z,94.57
2023-01-25T17:08:49.501Z,94.11
2023-01-25T17:11:19.469Z,94.73
2023-01-25T17:13:49.544Z,93.81
2023-01-25T17:16:17.031Z,93.64
2023-01-25T17:18:44.423Z,92.55
2023-01-25T17:21:14.369Z,92.82
2023-01-25T17:23:42.630Z,93.59
2023-01-25T17:26:12.320Z,93.94
2023-01-25T17:28:41.076Z,94.36
2023-01-25T17:31:14.792Z,94.40
2023-01-25T17:33:42.396Z,93.27
2023-01-25T17:36:10.186Z,93.80
2023-01-25T17:38:37.645Z,93.62
2023-01-25T17:41:05.554Z,93.33
2023-01-25T17:43:34.520Z,93.94
2023-01-25T17:46:11.454Z,94.24
2023-01-25T17:48:38.863Z,94.86
2023-01-25T17:51:06.724Z,94.63
2023-01-25T17:53:34.417Z,94.62
2023-01-25T17:56:02.722Z,94.27
2023-01-25T17:58:30.103Z,94.07
2023-01-25T18:01:12.562Z,94.15
2023-01-25T18:03:42.319Z,94.23
2023-01-25T18:06:10.289Z,94.03
2023-01-25T18:08:40.074Z,93.72
2023-01-25T18:11:10.097Z,93.12
2023-01-25T18:13:40.218Z,93.17
2023-01-25T18:16:09.417Z,93.53
2023-01-25T18:18:37.376Z,94.00
2023-01-25T18:21:08.886Z,93.47
2023-01-25T18:23:37.160Z,93.28
2023-01-25T18:26:06.420Z,93.66
2023-01-25T18:28:33.977Z,93.83
2023-01-25T18:31:04.466Z,93.53
2023-01-25T18:33:33.103Z,93.25
2023-01-25T18:36:02.756Z,93.38
2023-01-25T18:38:32.708Z,93.47
2023-01-25T18:41:00.270Z,93.51
2023-01-25T18:43:28.017Z,93.39
2023-01-25T18:45:56.206Z,92.80
2023-01-25T18:48:30.148Z,93.25
2023-01-25T18:50:58.649Z,92.77
2023-01-25T18:53:27.065Z,93.62
2023-01-25T18:56:04.090Z,93.07
2023-01-25T18:58:34.070Z,93.13
2023-01-25T19:01:03.987Z,92.82
2023-01-25T19:03:31.345Z,92.80
2023-01-25T19:05:58.833Z,93.17
2023-01-25T19:08:27.000Z,92.73
2023-01-25T19:10:59.963Z,92.86
2023-01-25T19:13:31.270Z,93.14
2023-01-25T19:16:03.562Z,93.21
2023-01-25T19:18:32.682Z,93.80
2023-01-25T19:21:00.031Z,93.55
2023-01-25T19:23:27.658Z,93.75
2023-01-25T19:25:55.548Z,93.54
2023-01-25T19:28:24.034Z,93.23
2023-01-25T19:30:52.896Z,92.93
2023-01-25T19:33:20.279Z,92.67
2023-01-25T19:35:47.625Z,92.86
2023-01-25T19:38:15.029Z,92.76
2023-01-25T19:40:42.348Z,92.42
2023-01-25T19:43:09.672Z,93.10
2023-01-25T19:45:36.984Z,93.09
2023-01-25T19:48:08.090Z,92.97
2023-01-25T19:50:35.392Z,93.29
2023-01-25T19:53:03.438Z,92.59
2023-01-25T19:55:32.269Z,92.47
2023-01-25T19:57:59.602Z,92.41
2023-01-25T20:00:27.368Z,91.97
2023-01-25T20:02:59.354Z,92.14
2023-01-25T20:05:32.963Z,91.84
2023-01-25T20:08:00.299Z,92.32
2023-01-25T20:10:27.596Z,91.93
2023-01-25T20:12:54.905Z,91.88
2023-01-25T20:15:22.205Z,91.71
2023-01-25T20:17:49.504Z,91.13
2023-01-25T20:20:17.356Z,91.50
2023-01-25T20:22:49.080Z,91.42
2023-01-25T20:25:16.413Z,91.17
2023-01-25T20:27:43.721Z,90.93
2023-01-25T20:30:12.105Z,90.73
2023-01-25T20:32:39.437Z,90.97
2023-01-25T20:35:08.787Z,91.10
2023-01-25T20:37:36.285Z,90.84
2023-01-25T20:40:05.586Z,91.16
2023-01-25T20:42:32.997Z,91.51
2023-01-25T20:45:00.308Z,91.55
2023-01-25T20:47:27.694Z,92.08
2023-01-25T20:49:55.087Z,91.11
2023-01-25T20:52:22.413Z,91.22
2023-01-25T20:54:49.827Z,90.84
2023-01-25T20:57:18.526Z,91.59
2023-01-25T20:59:45.867Z,91.02
2023-01-25T21:02:13.287Z,90.85
2023-01-25T21:04:40.639Z,90.40
2023-01-25T21:07:08.046Z,91.07
2023-01-25T21:09:35.358Z,90.72
2023-01-25T21:12:04.456Z,90.82
2023-01-25T21:14:33.170Z,90.36
2023-01-25T21:17:00.650Z,90.89
2023-01-25T21:19:28.009Z,91.01
2023-01-25T21:21:55.399Z,90.97
2023-01-25T21:24:22.861Z,90.81
2023-01-25T21:26:50.219Z,90.54
2023-01-25T21:29:18.497Z,90.83
2023-01-25T21:31:49.069Z,90.58
2023-01-25T21:34:16.488Z,90.21
2023-01-25T21:36:43.828Z,90.38
2023-01-25T21:39:11.194Z,90.24
2023-01-25T21:41:38.554Z,89.96
2023-01-25T21:44:23.578Z,90.35
2023-01-25T21:47:16.356Z,91.12
2023-01-25T21:49:57.336Z,90.22
2023-01-25T21:52:24.836Z,90.49
2023-01-25T21:54:52.320Z,91.09
2023-01-25T21:57:20.496Z,90.76
2023-01-25T21:59:48.753Z,91.11
2023-01-25T22:02:17.762Z,91.28
2023-01-25T22:04:45.216Z,91.11
2023-01-25T22:07:12.654Z,91.12
2023-01-25T22:09:40.109Z,91.15
2023-01-25T22:12:07.616Z,91.62
2023-01-25T22:14:35.191Z,91.52
2023-01-25T22:17:03.089Z,91.25
2023-01-25T22:19:31.847Z,91.27
2023-01-25T22:21:59.222Z,91.09
2023-01-25T22:24:26.663Z,90.11
2023-01-25T22:26:59.504Z,90.62
2023-01-25T22:29:27.214Z,90.87
2023-01-25T22:31:54.661Z,91.25
2023-01-25T22:34:22.170Z,91.17
2023-01-25T22:36:50.938Z,91.25
2023-01-25T22:39:18.402Z,91.04
2023-01-25T22:41:45.802Z,90.66
2023-01-25T22:44:14.455Z,90.96
2023-01-25T22:46:42.008Z,90.86
2023-01-25T22:49:09.378Z,91.42
2023-01-25T22:51:36.742Z,91.48
2023-01-25T22:54:06.043Z,91.27
2023-01-25T22:56:34.590Z,90.93
2023-01-25T22:59:02.462Z,90.56
2023-01-25T23:01:31.856Z,90.35
2023-01-25T23:03:59.860Z,91.11
2023-01-25T23:06:28.520Z,91.12
2023-01-25T23:08:56.867Z,90.75
2023-01-25T23:11:31.932Z,91.43
2023-01-25T23:14:17.848Z,90.97
2023-01-25T23:16:45.282Z,91.00
2023-01-25T23:19:11.873Z,91.24
2023-01-25T23:21:39.368Z,90.74
2023-01-25T23:24:07.546Z,91.14
2023-01-25T23:26:38.969Z,91.74
2023-01-25T23:29:08.459Z,92.68
2023-01-25T23:31:36.336Z,92.35
2023-01-25T23:34:05.846Z,92.47
2023-01-25T23:36:35.078Z,92.06
2023-01-25T23:39:03.205Z,91.95
2023-01-25T23:41:31.393Z,92.13
2023-01-25T23:44:00.751Z,92.25
2023-01-25T23:46:28.607Z,92.56
2023-01-25T23:48:56.166Z,92.47
2023-01-25T23:51:23.787Z,92.71
2023-01-25T23:53:53.294Z,92.19
2023-01-25T23:56:22.479Z,91.98
2023-01-25T23:58:51.058Z,91.58
